James D. Moran — WDI2873 — position and weather

sailwx.info

Track history (hours):
 
Tides and Currents Weather Stations Pressure Air Temp Water Temp Dewpoint Dewpoint Depression Visibility Wind Speed Wind Dir Waves Ship Positions

James D. Moran

Owner: Moran Towing Corporation, New Canaan, CT. More information available from US FCC via Universal Licensing System and Coast Guard Vessel Documentation Center.

Last reported at 2018-Jul-17 22:30 UTC. Time now 2018-Jul-17 22:50 UTC.
Position N 40°39' W 074°05'.

Length 28 m; draft 5.2 m.

Type: Tug. MMSI: 367682610.

Date/timePositionNaut miles runAvg speedWind from/ knotsBaromVisibWave heightAir tempDewpointWater temp
2018-Jul-17 22:30N 40°39' W 074°05'2 4.1
2018-Jul-17 22:00N 40°38' W 074°03'4 6.8
2018-Jul-17 21:28N 40°38' W 074°08'0 0.0
2018-Jul-17 21:00N 40°38' W 074°08'0 0.0
2018-Jul-17 20:30N 40°38' W 074°08'0 0.0
2018-Jul-17 19:59N 40°38' W 074°08'4 1.5
2018-Jul-17 17:38N 40°37' W 074°12'1 4.4
2018-Jul-17 17:27N 40°38' W 074°12'0 0.1
2018-Jul-17 16:59N 40°38' W 074°12'3 5.8
2018-Jul-17 16:31N 40°39' W 074°09'1 1.1
2018-Jul-17 16:00N 40°38' W 074°08'0 0.0
2018-Jul-17 15:21N 40°38' W 074°08'0 0.0
2018-Jul-17 14:57N 40°38' W 074°08'0 0.0
2018-Jul-17 14:27N 40°38' W 074°08'0 0.0
2018-Jul-17 13:58N 40°38' W 074°08'0 0.0
2018-Jul-17 13:30N 40°38' W 074°08'0 0.0
2018-Jul-17 13:00N 40°38' W 074°08'0 0.0
2018-Jul-17 12:30N 40°38' W 074°08'0 0.0
2018-Jul-17 12:00N 40°38' W 074°08'3 5.2
2018-Jul-17 11:29N 40°41' W 074°09'0 0.3
2018-Jul-17 11:00N 40°41' W 074°09'1 2.8
2018-Jul-17 10:30N 40°39' W 074°09'1 2.6
2018-Jul-17 09:57N 40°39' W 074°07'2 5.5
2018-Jul-17 09:30N 40°39' W 074°04'3 5.7
2018-Jul-17 09:00N 40°36' W 074°03'4 8.7
2018-Jul-17 08:30N 40°39' W 074°07'0 0.7
2018-Jul-17 08:00N 40°38' W 074°08'0 0.0
2018-Jul-17 07:30N 40°38' W 074°08'0 0.0
2018-Jul-17 07:01N 40°38' W 074°08'0 0.0
2018-Jul-17 06:30N 40°38' W 074°08'0 0.0
2018-Jul-17 06:00N 40°38' W 074°08'0 0.0
2018-Jul-17 05:30N 40°38' W 074°08'0 0.0
2018-Jul-17 05:00N 40°38' W 074°08'0 0.0
2018-Jul-17 04:30N 40°38' W 074°08'0 0.0
2018-Jul-17 04:01N 40°38' W 074°08'0 0.0
2018-Jul-17 03:30N 40°38' W 074°08'0 0.0
2018-Jul-17 03:01N 40°38' W 074°08'0 0.0
2018-Jul-17 02:30N 40°38' W 074°08'1 1.3
2018-Jul-17 02:00N 40°39' W 074°09'1 2.4
2018-Jul-17 01:31N 40°40' W 074°09'0 0.1
2018-Jul-17 01:00N 40°40' W 074°09'0 0.4
2018-Jul-17 00:30N 40°40' W 074°09'0 0.4
2018-Jul-16 23:30N 40°39' W 074°09'3 5.4
2018-Jul-16 23:00N 40°42' W 074°09'1 2.7
2018-Jul-16 22:29N 40°41' W 074°08'2 4.2
2018-Jul-16 22:00N 40°38' W 074°08'0 0.0
2018-Jul-16 21:30N 40°38' W 074°08'0 0.0
2018-Jul-16 21:00N 40°38' W 074°08'0 0.0
2018-Jul-16 20:30N 40°38' W 074°08'2 3.1
2018-Jul-16 19:59N 40°39' W 074°10'2 0.6
2018-Jul-16 16:46N 40°38' W 074°12'3 8.0
2018-Jul-16 16:27N 40°39' W 074°09'1 1.9
2018-Jul-16 15:59N 40°38' W 074°08'0 0.0
2018-Jul-16 15:24N 40°38' W 074°08'0 0.0
2018-Jul-16 14:58N 40°38' W 074°08'0 0.0
2018-Jul-16 14:24N 40°38' W 074°08'0 0.0
2018-Jul-16 13:49N 40°38' W 074°08'0 0.0
2018-Jul-16 13:22N 40°38' W 074°08'0 0.0
2018-Jul-16 12:59N 40°38' W 074°08'0 0.0
2018-Jul-16 12:30N 40°38' W 074°08'0 0.0
2018-Jul-16 12:00N 40°38' W 074°08'2 4.7
2018-Jul-16 11:30N 40°41' W 074°09'0 0.3
2018-Jul-16 11:00N 40°41' W 074°09'0 0.7
2018-Jul-16 10:30N 40°40' W 074°08'2 3.8
2018-Jul-16 10:01N 40°39' W 074°09'3 5.0
2018-Jul-16 09:30N 40°39' W 074°06'3 5.2
2018-Jul-16 09:00N 40°37' W 074°03'1 2.3
2018-Jul-16 08:30N 40°36' W 074°03'4 7.0
2018-Jul-16 08:00N 40°39' W 074°05'2 3.4
2018-Jul-16 07:28N 40°38' W 074°08'0 0.0
2018-Jul-16 07:00N 40°38' W 074°08'0 0.0
2018-Jul-16 06:29N 40°38' W 074°08'0 0.0
2018-Jul-16 06:00N 40°38' W 074°08'0 0.0
2018-Jul-16 05:30N 40°38' W 074°08'0 0.0
2018-Jul-16 04:55N 40°38' W 074°08'0 0.0
2018-Jul-16 04:26N 40°38' W 074°08'0 0.0
2018-Jul-16 04:01N 40°38' W 074°08'0 0.0
2018-Jul-16 03:30N 40°38' W 074°08'1 2.9
2018-Jul-16 03:01N 40°40' W 074°09'1 1.8
2018-Jul-16 02:25N 40°41' W 074°09'1 1.4
2018-Jul-16 02:00N 40°40' W 074°08'2 4.0
2018-Jul-16 01:30N 40°39' W 074°09'3 5.2
2018-Jul-16 01:00N 40°39' W 074°05'3 5.4
2018-Jul-16 00:30N 40°37' W 074°03'3 6.8
2018-Jul-16 00:00N 40°39' W 074°07'1 1.4
2018-Jul-15 23:30N 40°38' W 074°08'0 0.0
2018-Jul-15 23:01N 40°38' W 074°08'0 0.0
2018-Jul-15 22:07N 40°38' W 074°08'0 0.0
2018-Jul-15 21:40N 40°38' W 074°08'2 0.3
2018-Jul-15 16:12N 40°39' W 074°06'1 3.3
2018-Jul-15 15:58N 40°39' W 074°07'2 2.4
2018-Jul-15 15:15N 40°40' W 074°08'0 0.6
2018-Jul-15 14:57N 40°40' W 074°09'0 0.4
2018-Jul-15 14:30N 40°40' W 074°09'1 0.6
2018-Jul-15 12:07N 40°38' W 074°08'0 0.0
2018-Jul-15 11:54N 40°38' W 074°08'2 4.1
2018-Jul-15 11:24N 40°39' W 074°05'1 3.6
2018-Jul-15 11:00N 40°40' W 074°03'1 2.5
2018-Jul-15 10:30N 40°40' W 074°05'0 0.0
2018-Jul-15 10:00N 40°40' W 074°05'1 2.5
2018-Jul-15 09:31N 40°39' W 074°05'2 4.5
2018-Jul-15 09:01N 40°38' W 074°08'0 0.0
2018-Jul-15 08:31N 40°38' W 074°08'0 0.0
2018-Jul-15 08:00N 40°38' W 074°08'0 0.0
2018-Jul-15 07:31N 40°38' W 074°08'0 0.0
2018-Jul-15 07:00N 40°38' W 074°08'0 0.0
2018-Jul-15 06:30N 40°38' W 074°08'0 0.0
2018-Jul-15 06:00N 40°38' W 074°08'1 1.8
2018-Jul-15 05:31N 40°39' W 074°07'2 3.3
2018-Jul-15 05:00N 40°39' W 074°09'1 2.7
2018-Jul-15 04:30N 40°40' W 074°08'0 0.9
2018-Jul-15 04:00N 40°41' W 074°09'2 4.6
2018-Jul-15 03:30N 40°39' W 074°09'1 1.5
2018-Jul-15 03:01N 40°38' W 074°08'0 0.0
2018-Jul-15 02:30N 40°38' W 074°08'0 0.0
2018-Jul-15 02:00N 40°38' W 074°08'0 0.0
2018-Jul-15 01:30N 40°38' W 074°08'0 0.0
2018-Jul-15 01:00N 40°38' W 074°08'0 0.0
2018-Jul-15 00:30N 40°38' W 074°08'0 0.0
2018-Jul-15 00:00N 40°38' W 074°08'0 0.0
2018-Jul-14 23:30N 40°38' W 074°08'0 0.0
2018-Jul-14 23:00N 40°38' W 074°08'0 0.0
2018-Jul-14 22:30N 40°38' W 074°08'0 0.0
2018-Jul-14 22:00N 40°38' W 074°08'0 0.0
2018-Jul-14 21:30N 40°38' W 074°08'0 0.0
2018-Jul-14 21:01N 40°38' W 074°08'0 0.0
2018-Jul-14 20:30N 40°38' W 074°08'0 0.0
2018-Jul-14 20:00N 40°38' W 074°08'0 0.0
2018-Jul-14 19:30N 40°38' W 074°08'0 0.0
2018-Jul-14 19:00N 40°38' W 074°08'0 0.0
2018-Jul-14 18:31N 40°38' W 074°08'0 0.0
2018-Jul-14 18:01N 40°38' W 074°08'0 0.0
2018-Jul-14 17:30N 40°38' W 074°08'0 0.0
2018-Jul-14 17:00N 40°38' W 074°08'0 0.0
2018-Jul-14 16:30N 40°38' W 074°08'0 0.0
2018-Jul-14 16:01N 40°38' W 074°08'0 0.0
2018-Jul-14 15:31N 40°38' W 074°08'0 0.0
2018-Jul-14 15:00N 40°38' W 074°08'0 0.0
2018-Jul-14 14:00N 40°38' W 074°08'0 0.0
2018-Jul-14 13:30N 40°38' W 074°08'0 0.0
2018-Jul-14 13:00N 40°38' W 074°08'0 0.0
2018-Jul-14 12:30N 40°38' W 074°08'0 0.0
2018-Jul-14 12:00N 40°38' W 074°08'0 0.0
2018-Jul-14 11:29N 40°38' W 074°08'0 0.0
2018-Jul-14 11:00N 40°38' W 074°08'0 0.0
2018-Jul-14 10:30N 40°38' W 074°08'0 0.0
2018-Jul-14 10:00N 40°39' W 074°08'3 5.4
2018-Jul-14 09:30N 40°41' W 074°09'1 1.8
2018-Jul-14 09:00N 40°40' W 074°08'2 3.7
2018-Jul-14 08:30N 40°39' W 074°08'3 5.8
2018-Jul-14 08:00N 40°39' W 074°04'3 5.3
2018-Jul-14 07:30N 40°36' W 074°03'3 6.5
2018-Jul-14 07:00N 40°39' W 074°06'2 3.4
2018-Jul-14 06:30N 40°38' W 074°08'0 0.0
2018-Jul-14 06:00N 40°38' W 074°08'0 0.0
2018-Jul-14 05:30N 40°38' W 074°08'0 0.0
2018-Jul-14 05:00N 40°38' W 074°08'0 0.0
2018-Jul-14 04:30N 40°38' W 074°08'0 0.0
2018-Jul-14 04:00N 40°38' W 074°08'0 0.0
2018-Jul-14 03:30N 40°38' W 074°08'0 0.0
2018-Jul-14 03:00N 40°38' W 074°08'0 0.0
2018-Jul-14 02:30N 40°38' W 074°08'0 0.0
2018-Jul-14 02:00N 40°38' W 074°08'0 0.0
2018-Jul-14 01:30N 40°38' W 074°08'0 0.0
2018-Jul-14 01:00N 40°38' W 074°08'0 0.0
2018-Jul-14 00:30N 40°38' W 074°08'0 0.0
2018-Jul-14 00:00N 40°38' W 074°08'0 0.0
2018-Jul-13 23:30N 40°38' W 074°08'0 0.0
2018-Jul-13 23:00N 40°38' W 074°08'0 0.0
2018-Jul-13 22:30N 40°38' W 074°08'3 6.3
2018-Jul-13 22:00N 40°40' W 074°04'1 1.4
2018-Jul-13 21:30N 40°40' W 074°05'1 2.3
2018-Jul-13 20:56N 40°40' W 074°03'3 6.5
2018-Jul-13 20:29N 40°37' W 074°03'3 5.8
2018-Jul-13 20:00N 40°39' W 074°05'2 4.8
2018-Jul-13 19:30N 40°39' W 074°08'0 0.0
2018-Jul-13 19:00N 40°39' W 074°08'0 0.0
2018-Jul-13 18:30N 40°39' W 074°08'0 0.0
2018-Jul-13 18:00N 40°39' W 074°08'0 0.0
2018-Jul-13 17:30N 40°39' W 074°08'0 0.0
2018-Jul-13 17:00N 40°39' W 074°08'0 0.0
2018-Jul-13 16:30N 40°39' W 074°08'0 0.0
2018-Jul-13 16:00N 40°39' W 074°08'0 0.0
2018-Jul-13 15:30N 40°39' W 074°08'3 5.2
2018-Jul-13 15:00N 40°41' W 074°09'0 0.6
2018-Jul-13 14:30N 40°41' W 074°09'3 3.0
2018-Jul-13 13:30N 40°39' W 074°06'1 1.9
2018-Jul-13 13:00N 40°39' W 074°04'3 5.1
2018-Jul-13 12:30N 40°38' W 074°08'0 0.0
2018-Jul-13 12:00N 40°38' W 074°08'0 0.0
2018-Jul-13 11:30N 40°38' W 074°08'0 0.0
2018-Jul-13 10:59N 40°38' W 074°08'0 0.0
2018-Jul-13 10:30N 40°38' W 074°08'0 0.0
2018-Jul-13 09:59N 40°38' W 074°08'1 2.5
2018-Jul-13 09:30N 40°39' W 074°09'1 2.3
2018-Jul-13 09:00N 40°41' W 074°09'1 1.1
2018-Jul-13 08:30N 40°40' W 074°08'2 3.2
2018-Jul-13 08:00N 40°39' W 074°08'2 5.0
2018-Jul-13 07:31N 40°39' W 074°05'3 6.6
2018-Jul-13 07:01N 40°36' W 074°03'3 6.2
2018-Jul-13 06:30N 40°39' W 074°05'3 6.5
2018-Jul-13 06:00N 40°39' W 074°09'2 4.1
2018-Jul-13 05:30N 40°41' W 074°09'0 0.3
2018-Jul-13 05:00N 40°41' W 074°09'3 1.6
2018-Jul-13 03:16N 40°39' W 074°07'1 4.3
2018-Jul-13 02:59N 40°39' W 074°06'2 4.5
2018-Jul-13 02:29N 40°40' W 074°09'1 2.7
2018-Jul-13 02:00N 40°41' W 074°09'0 0.1
2018-Jul-13 01:30N 40°41' W 074°09'2 3.3
2018-Jul-13 01:00N 40°39' W 074°09'1 2.5
2018-Jul-13 00:30N 40°39' W 074°07'1 2.6
2018-Jul-13 00:00N 40°40' W 074°09'1 2.3
2018-Jul-12 23:30N 40°41' W 074°09'0 0.6
2018-Jul-12 23:00N 40°41' W 074°09'0 0.1
2018-Jul-12 22:31N 40°41' W 074°09'0 0.1
2018-Jul-12 21:59N 40°41' W 074°09'4 7.4
2018-Jul-12 21:29N 40°38' W 074°12'0 0.0
2018-Jul-12 18:13N 40°38' W 074°12'2 9.2
2018-Jul-12 17:57N 40°38' W 074°09'1 1.8
2018-Jul-12 17:29N 40°38' W 074°08'0 0.0
2018-Jul-12 16:59N 40°38' W 074°08'0 0.0
2018-Jul-12 16:26N 40°38' W 074°08'0 0.0
2018-Jul-12 16:00N 40°38' W 074°08'0 0.0
2018-Jul-12 15:30N 40°38' W 074°08'0 0.0
2018-Jul-12 14:58N 40°38' W 074°08'0 0.0
2018-Jul-12 14:28N 40°38' W 074°08'4 7.6
2018-Jul-12 14:00N 40°39' W 074°03'1 2.8
2018-Jul-12 13:31N 40°40' W 074°05'0 0.4
2018-Jul-12 13:01N 40°40' W 074°05'3 5.6
2018-Jul-12 12:30N 40°39' W 074°08'0 0.1
2018-Jul-12 12:00N 40°38' W 074°08'0 0.0
2018-Jul-12 11:29N 40°38' W 074°08'1 1.9
2018-Jul-12 11:01N 40°39' W 074°09'1 1.4
2018-Jul-12 10:26N 40°40' W 074°09'1 2.4
2018-Jul-12 10:00N 40°39' W 074°08'3 6.4
2018-Jul-12 09:31N 40°39' W 074°04'2 3.2
2018-Jul-12 09:00N 40°39' W 074°06'3 6.0
2018-Jul-12 08:30N 40°41' W 074°09'0 0.3
2018-Jul-12 08:00N 40°41' W 074°09'1 1.9
2018-Jul-12 07:30N 40°40' W 074°08'2 3.5
2018-Jul-12 07:00N 40°39' W 074°07'3 6.1
2018-Jul-12 06:30N 40°38' W 074°03'3 6.4
2018-Jul-12 05:58N 40°38' W 074°08'0 0.0
2018-Jul-12 05:29N 40°38' W 074°08'1 1.4
2018-Jul-12 05:00N 40°39' W 074°09'1 2.7
2018-Jul-12 04:30N 40°39' W 074°10'1 1.2
2018-Jul-12 03:59N 40°39' W 074°11'0 0.0
2018-Jul-12 03:30N 40°39' W 074°11'2 3.4
2018-Jul-12 02:58N 40°39' W 074°09'1 1.4
2018-Jul-12 02:24N 40°38' W 074°08'0 0.0
2018-Jul-12 01:59N 40°38' W 074°08'0 0.0
2018-Jul-12 01:21N 40°38' W 074°08'0 0.0
2018-Jul-12 01:00N 40°38' W 074°08'0 0.0
2018-Jul-12 00:05N 40°38' W 074°08'0 0.0
2018-Jul-12 00:00N 40°38' W 074°08'1 1.6
2018-Jul-11 23:30N 40°39' W 074°09'1 2.8
2018-Jul-11 23:00N 40°40' W 074°08'0 0.3
2018-Jul-11 22:27N 40°40' W 074°09'0 0.0
2018-Jul-11 21:59N 40°40' W 074°09'0 0.0
2018-Jul-11 21:30N 40°40' W 074°09'0 0.0
2018-Jul-11 20:59N 40°40' W 074°09'0 0.0
2018-Jul-11 20:26N 40°40' W 074°09'1 3.0
2018-Jul-11 20:00N 40°39' W 074°09'1 0.3
2018-Jul-11 17:21N 40°38' W 074°08'0 0.0
2018-Jul-11 17:00N 40°38' W 074°08'0 0.0
2018-Jul-11 16:30N 40°38' W 074°08'3 1.3
2018-Jul-11 13:53N 40°38' W 074°12'3 8.6
2018-Jul-11 13:30N 40°39' W 074°08'0 0.0
2018-Jul-11 12:40N 40°38' W 074°08'0 0.0
2018-Jul-11 12:21N 40°38' W 074°08'0 0.2
2018-Jul-11 12:00N 40°39' W 074°08'3 5.0
2018-Jul-11 11:30N 40°41' W 074°09'0 0.5
2018-Jul-11 11:01N 40°41' W 074°09'1 2.7
2018-Jul-11 10:30N 40°39' W 074°09'1 2.5
2018-Jul-11 09:58N 40°39' W 074°07'2 5.3
2018-Jul-11 09:31N 40°39' W 074°04'3 5.3
2018-Jul-11 09:00N 40°36' W 074°03'2 4.1
2018-Jul-11 08:30N 40°38' W 074°04'3 5.2
2018-Jul-11 08:00N 40°39' W 074°07'0 0.6
2018-Jul-11 07:29N 40°38' W 074°08'0 0.0
2018-Jul-11 06:16N 40°38' W 074°08'0 0.0
2018-Jul-11 05:35N 40°38' W 074°08'0 0.0
2018-Jul-11 05:25N 40°38' W 074°08'0 1.1
2018-Jul-11 05:00N 40°39' W 074°07'1 2.6
2018-Jul-11 04:30N 40°39' W 074°09'1 2.3
2018-Jul-11 04:01N 40°41' W 074°08'1 1.0
2018-Jul-11 03:30N 40°41' W 074°09'2 4.7
2018-Jul-11 03:00N 40°39' W 074°08'0 0.5
2018-Jul-11 02:23N 40°38' W 074°08'0 0.0
2018-Jul-11 02:00N 40°38' W 074°08'0 0.0
2018-Jul-11 00:24N 40°38' W 074°08'0 0.0
2018-Jul-11 00:00N 40°38' W 074°08'0 0.0
2018-Jul-10 23:30N 40°38' W 074°08'0 0.0
2018-Jul-10 22:58N 40°38' W 074°08'0 0.0
2018-Jul-10 22:30N 40°38' W 074°08'1 2.8
2018-Jul-10 22:00N 40°40' W 074°09'1 2.7
2018-Jul-10 21:30N 40°41' W 074°09'1 1.6
2018-Jul-10 21:00N 40°41' W 074°08'2 3.6
2018-Jul-10 20:26N 40°38' W 074°09'2 5.3
2018-Jul-10 19:59N 40°39' W 074°06'2 4.8
2018-Jul-10 19:28N 40°37' W 074°03'3 5.9
2018-Jul-10 19:00N 40°39' W 074°06'1 1.1
2018-Jul-10 17:47N 40°38' W 074°08'0 0.0
2018-Jul-10 17:30N 40°38' W 074°08'0 0.0
2018-Jul-10 17:00N 40°38' W 074°08'0 0.0
2018-Jul-10 16:30N 40°38' W 074°08'0 0.0
2018-Jul-10 15:59N 40°38' W 074°08'0 0.0
2018-Jul-10 15:30N 40°38' W 074°08'0 0.0
2018-Jul-10 15:00N 40°38' W 074°08'0 0.0
2018-Jul-10 14:30N 40°38' W 074°08'0 0.8
2018-Jul-10 13:58N 40°39' W 074°07'1 2.5
2018-Jul-10 13:30N 40°39' W 074°09'2 3.5
2018-Jul-10 12:59N 40°40' W 074°08'0 0.2
2018-Jul-10 12:22N 40°40' W 074°08'0 0.0
2018-Jul-10 11:59N 40°40' W 074°08'0 0.0
2018-Jul-10 11:30N 40°40' W 074°08'0 0.0
2018-Jul-10 11:00N 40°40' W 074°08'1 1.6
2018-Jul-10 10:31N 40°40' W 074°09'0 0.7
2018-Jul-10 10:00N 40°39' W 074°09'2 3.8
2018-Jul-10 09:27N 40°39' W 074°06'2 5.2
2018-Jul-10 09:00N 40°38' W 074°03'1 2.4
2018-Jul-10 08:30N 40°39' W 074°04'3 6.8
2018-Jul-10 08:00N 40°39' W 074°09'1 2.3
2018-Jul-10 07:30N 40°40' W 074°09'0 0.1
2018-Jul-10 07:00N 40°40' W 074°09'1 2.5
2018-Jul-10 06:30N 40°39' W 074°08'0 0.5
2018-Jul-10 05:52N 40°38' W 074°08'0 0.0
2018-Jul-10 05:15N 40°38' W 074°08'0 0.0
2018-Jul-10 05:00N 40°38' W 074°08'0 0.0
2018-Jul-10 04:29N 40°38' W 074°08'0 0.0
2018-Jul-10 03:58N 40°38' W 074°08'0 0.0
2018-Jul-10 03:30N 40°38' W 074°08'0 0.0
2018-Jul-10 03:00N 40°38' W 074°08'0 0.0
2018-Jul-10 02:30N 40°38' W 074°08'0 0.0
2018-Jul-10 02:00N 40°38' W 074°08'0 0.0
2018-Jul-10 01:30N 40°38' W 074°08'0 0.0
2018-Jul-10 01:00N 40°38' W 074°08'0 0.0
2018-Jul-10 00:30N 40°38' W 074°08'0 0.0
2018-Jul-10 00:00N 40°38' W 074°08'2 3.0
2018-Jul-09 23:29N 40°40' W 074°09'0 0.1
2018-Jul-09 23:00N 40°40' W 074°09'1 2.7
2018-Jul-09 22:30N 40°39' W 074°08'2 4.5
2018-Jul-09 22:00N 40°39' W 074°06'2 4.9
2018-Jul-09 21:30N 40°37' W 074°03'4 7.2
2018-Jul-09 21:00N 40°39' W 074°08'2 3.3
2018-Jul-09 20:30N 40°40' W 074°09'1 1.2
2018-Jul-09 20:01N 40°41' W 074°08'0 0.9
2018-Jul-09 19:31N 40°41' W 074°09'2 4.3
2018-Jul-09 18:59N 40°39' W 074°09'1 1.4
2018-Jul-09 18:23N 40°38' W 074°08'0 0.0
2018-Jul-09 17:50N 40°38' W 074°08'0 0.0
2018-Jul-09 17:28N 40°38' W 074°08'0 0.0
2018-Jul-09 17:00N 40°38' W 074°08'0 0.0
2018-Jul-09 16:27N 40°38' W 074°08'0 0.0
2018-Jul-09 15:57N 40°38' W 074°08'0 0.0
2018-Jul-09 15:30N 40°38' W 074°08'0 0.0
2018-Jul-09 14:52N 40°38' W 074°08'0 0.0
2018-Jul-09 13:35N 40°38' W 074°08'0 0.0
2018-Jul-09 13:30N 40°38' W 074°08'0 0.0
2018-Jul-09 12:54N 40°38' W 074°08'0 0.0
2018-Jul-09 12:21N 40°38' W 074°08'0 0.0
2018-Jul-09 12:00N 40°38' W 074°08'2 4.9
2018-Jul-09 11:30N 40°39' W 074°05'1 2.5
2018-Jul-09 11:00N 40°40' W 074°05'0 0.9
2018-Jul-09 10:30N 40°40' W 074°04'3 6.3
2018-Jul-09 10:00N 40°37' W 074°03'1 2.2
2018-Jul-09 09:30N 40°38' W 074°04'0 0.0
2018-Jul-09 09:00N 40°38' W 074°04'3 6.6
2018-Jul-09 08:30N 40°39' W 074°08'2 3.9
2018-Jul-09 08:00N 40°40' W 074°08'1 2.1
2018-Jul-09 07:30N 40°41' W 074°09'3 5.2
2018-Jul-09 07:00N 40°39' W 074°08'0 0.7
2018-Jul-09 06:24N 40°38' W 074°08'0 0.0
2018-Jul-09 06:00N 40°38' W 074°08'0 0.0
2018-Jul-09 05:29N 40°38' W 074°08'0 0.0
2018-Jul-09 03:51N 40°38' W 074°08'0 0.0
2018-Jul-09 03:30N 40°38' W 074°08'0 0.0
2018-Jul-09 02:59N 40°38' W 074°08'0 0.0
2018-Jul-09 02:24N 40°38' W 074°08'0 0.0
2018-Jul-09 02:00N 40°38' W 074°08'0 0.0
2018-Jul-09 01:10N 40°38' W 074°08'0 0.0
2018-Jul-09 00:58N 40°38' W 074°08'0 0.0
2018-Jul-09 00:21N 40°38' W 074°08'0 0.0
2018-Jul-08 23:47N 40°38' W 074°08'0 0.0
2018-Jul-08 23:30N 40°38' W 074°08'0 0.0
2018-Jul-08 22:59N 40°38' W 074°08'0 0.0
2018-Jul-08 22:05N 40°38' W 074°08'0 0.0
2018-Jul-08 21:59N 40°38' W 074°08'1 0.4
2018-Jul-08 20:26N 40°38' W 074°09'2 3.9
2018-Jul-08 19:56N 40°40' W 074°08'1 1.5
2018-Jul-08 19:29N 40°41' W 074°09'3 1.1
2018-Jul-08 17:08N 40°38' W 074°08'0 0.0
2018-Jul-08 16:38N 40°38' W 074°08'0 0.0
2018-Jul-08 16:29N 40°38' W 074°08'0 0.0
2018-Jul-08 15:50N 40°38' W 074°08'1 1.6
2018-Jul-08 15:14N 40°39' W 074°07'0 0.1
2018-Jul-08 14:29N 40°39' W 074°07'3 3.9
2018-Jul-08 13:47N 40°38' W 074°03'1 4.3
2018-Jul-08 13:30N 40°39' W 074°04'3 3.9
2018-Jul-08 12:50N 40°38' W 074°08'0 0.0
2018-Jul-08 12:29N 40°38' W 074°08'0 0.0
2018-Jul-08 11:59N 40°38' W 074°08'0 0.0
2018-Jul-08 11:23N 40°38' W 074°08'0 0.0
2018-Jul-08 10:59N 40°38' W 074°08'1 2.7
2018-Jul-08 10:29N 40°40' W 074°09'1 3.1
2018-Jul-08 10:00N 40°41' W 074°09'1 2.4
2018-Jul-08 09:30N 40°40' W 074°08'2 3.3
2018-Jul-08 09:00N 40°39' W 074°07'3 5.7
2018-Jul-08 08:29N 40°38' W 074°03'1 2.0
2018-Jul-08 08:00N 40°39' W 074°04'3 5.0
2018-Jul-08 07:18N 40°40' W 074°09'0 0.8
2018-Jul-08 07:01N 40°40' W 074°09'1 2.5
2018-Jul-08 06:29N 40°39' W 074°09'1 0.8
2018-Jul-08 05:30N 40°38' W 074°08'0 0.0
2018-Jul-08 05:00N 40°38' W 074°08'0 0.0
2018-Jul-08 04:28N 40°38' W 074°08'0 0.0
2018-Jul-08 03:54N 40°38' W 074°08'0 0.0
2018-Jul-08 03:23N 40°38' W 074°08'0 0.0
2018-Jul-08 02:59N 40°38' W 074°08'0 0.0
2018-Jul-08 02:30N 40°38' W 074°08'1 1.2
2018-Jul-08 02:00N 40°39' W 074°09'1 2.1
2018-Jul-08 01:28N 40°40' W 074°09'1 2.9
2018-Jul-08 01:00N 40°38' W 074°08'0 0.0
2018-Jul-08 00:30N 40°38' W 074°08'0 0.0
2018-Jul-08 00:00N 40°38' W 074°08'0 0.0
2018-Jul-07 23:30N 40°38' W 074°08'0 0.0
2018-Jul-07 23:00N 40°38' W 074°08'0 0.0
2018-Jul-07 22:30N 40°38' W 074°08'  
Track history (hours):
 
Tides and Currents Weather Stations Pressure Air Temp Water Temp Dewpoint Dewpoint Depression Visibility Wind Speed Wind Dir Waves Ship Positions

James D. Moran

Owner: Moran Towing Corporation, New Canaan, CT. More information available from US FCC via Universal Licensing System and Coast Guard Vessel Documentation Center.

Last reported at 2018-Jul-17 22:30 UTC. Time now 2018-Jul-17 22:50 UTC.
Position N 40°39' W 074°05'.

Length 28 m; draft 5.2 m.

Type: Tug. MMSI: 367682610.

Date/timePositionNaut miles runAvg speedWind from/ knotsBaromVisibWave heightAir tempDewpointWater temp
2018-Jul-17 22:30N 40°39' W 074°05'2 4.1
2018-Jul-17 22:00N 40°38' W 074°03'4 6.8
2018-Jul-17 21:28N 40°38' W 074°08'0 0.0
2018-Jul-17 21:00N 40°38' W 074°08'0 0.0
2018-Jul-17 20:30N 40°38' W 074°08'0 0.0
2018-Jul-17 19:59N 40°38' W 074°08'4 1.5
2018-Jul-17 17:38N 40°37' W 074°12'1 4.4
2018-Jul-17 17:27N 40°38' W 074°12'0 0.1
2018-Jul-17 16:59N 40°38' W 074°12'3 5.8
2018-Jul-17 16:31N 40°39' W 074°09'1 1.1
2018-Jul-17 16:00N 40°38' W 074°08'0 0.0
2018-Jul-17 15:21N 40°38' W 074°08'0 0.0
2018-Jul-17 14:57N 40°38' W 074°08'0 0.0
2018-Jul-17 14:27N 40°38' W 074°08'0 0.0
2018-Jul-17 13:58N 40°38' W 074°08'0 0.0
2018-Jul-17 13:30N 40°38' W 074°08'0 0.0
2018-Jul-17 13:00N 40°38' W 074°08'0 0.0
2018-Jul-17 12:30N 40°38' W 074°08'0 0.0
2018-Jul-17 12:00N 40°38' W 074°08'3 5.2
2018-Jul-17 11:29N 40°41' W 074°09'0 0.3
2018-Jul-17 11:00N 40°41' W 074°09'1 2.8
2018-Jul-17 10:30N 40°39' W 074°09'1 2.6
2018-Jul-17 09:57N 40°39' W 074°07'2 5.5
2018-Jul-17 09:30N 40°39' W 074°04'3 5.7
2018-Jul-17 09:00N 40°36' W 074°03'4 8.7
2018-Jul-17 08:30N 40°39' W 074°07'0 0.7
2018-Jul-17 08:00N 40°38' W 074°08'0 0.0
2018-Jul-17 07:30N 40°38' W 074°08'0 0.0
2018-Jul-17 07:01N 40°38' W 074°08'0 0.0
2018-Jul-17 06:30N 40°38' W 074°08'0 0.0
2018-Jul-17 06:00N 40°38' W 074°08'0 0.0
2018-Jul-17 05:30N 40°38' W 074°08'0 0.0
2018-Jul-17 05:00N 40°38' W 074°08'0 0.0
2018-Jul-17 04:30N 40°38' W 074°08'0 0.0
2018-Jul-17 04:01N 40°38' W 074°08'0 0.0
2018-Jul-17 03:30N 40°38' W 074°08'0 0.0
2018-Jul-17 03:01N 40°38' W 074°08'0 0.0
2018-Jul-17 02:30N 40°38' W 074°08'1 1.3
2018-Jul-17 02:00N 40°39' W 074°09'1 2.4
2018-Jul-17 01:31N 40°40' W 074°09'0 0.1
2018-Jul-17 01:00N 40°40' W 074°09'0 0.4
2018-Jul-17 00:30N 40°40' W 074°09'0 0.4
2018-Jul-16 23:30N 40°39' W 074°09'3 5.4
2018-Jul-16 23:00N 40°42' W 074°09'1 2.7
2018-Jul-16 22:29N 40°41' W 074°08'2 4.2
2018-Jul-16 22:00N 40°38' W 074°08'0 0.0
2018-Jul-16 21:30N 40°38' W 074°08'0 0.0
2018-Jul-16 21:00N 40°38' W 074°08'0 0.0
2018-Jul-16 20:30N 40°38' W 074°08'2 3.1
2018-Jul-16 19:59N 40°39' W 074°10'2 0.6
2018-Jul-16 16:46N 40°38' W 074°12'3 8.0
2018-Jul-16 16:27N 40°39' W 074°09'1 1.9
2018-Jul-16 15:59N 40°38' W 074°08'0 0.0
2018-Jul-16 15:24N 40°38' W 074°08'0 0.0
2018-Jul-16 14:58N 40°38' W 074°08'0 0.0
2018-Jul-16 14:24N 40°38' W 074°08'0 0.0
2018-Jul-16 13:49N 40°38' W 074°08'0 0.0
2018-Jul-16 13:22N 40°38' W 074°08'0 0.0
2018-Jul-16 12:59N 40°38' W 074°08'0 0.0
2018-Jul-16 12:30N 40°38' W 074°08'0 0.0
2018-Jul-16 12:00N 40°38' W 074°08'2 4.7
2018-Jul-16 11:30N 40°41' W 074°09'0 0.3
2018-Jul-16 11:00N 40°41' W 074°09'0 0.7
2018-Jul-16 10:30N 40°40' W 074°08'2 3.8
2018-Jul-16 10:01N 40°39' W 074°09'3 5.0
2018-Jul-16 09:30N 40°39' W 074°06'3 5.2
2018-Jul-16 09:00N 40°37' W 074°03'1 2.3
2018-Jul-16 08:30N 40°36' W 074°03'4 7.0
2018-Jul-16 08:00N 40°39' W 074°05'2 3.4
2018-Jul-16 07:28N 40°38' W 074°08'0 0.0
2018-Jul-16 07:00N 40°38' W 074°08'0 0.0
2018-Jul-16 06:29N 40°38' W 074°08'0 0.0
2018-Jul-16 06:00N 40°38' W 074°08'0 0.0
2018-Jul-16 05:30N 40°38' W 074°08'0 0.0
2018-Jul-16 04:55N 40°38' W 074°08'0 0.0
2018-Jul-16 04:26N 40°38' W 074°08'0 0.0
2018-Jul-16 04:01N 40°38' W 074°08'0 0.0
2018-Jul-16 03:30N 40°38' W 074°08'1 2.9
2018-Jul-16 03:01N 40°40' W 074°09'1 1.8
2018-Jul-16 02:25N 40°41' W 074°09'1 1.4
2018-Jul-16 02:00N 40°40' W 074°08'2 4.0
2018-Jul-16 01:30N 40°39' W 074°09'3 5.2
2018-Jul-16 01:00N 40°39' W 074°05'3 5.4
2018-Jul-16 00:30N 40°37' W 074°03'3 6.8
2018-Jul-16 00:00N 40°39' W 074°07'1 1.4
2018-Jul-15 23:30N 40°38' W 074°08'0 0.0
2018-Jul-15 23:01N 40°38' W 074°08'0 0.0
2018-Jul-15 22:07N 40°38' W 074°08'0 0.0
2018-Jul-15 21:40N 40°38' W 074°08'2 0.3
2018-Jul-15 16:12N 40°39' W 074°06'1 3.3
2018-Jul-15 15:58N 40°39' W 074°07'2 2.4
2018-Jul-15 15:15N 40°40' W 074°08'0 0.6
2018-Jul-15 14:57N 40°40' W 074°09'0 0.4
2018-Jul-15 14:30N 40°40' W 074°09'1 0.6
2018-Jul-15 12:07N 40°38' W 074°08'0 0.0
2018-Jul-15 11:54N 40°38' W 074°08'2 4.1
2018-Jul-15 11:24N 40°39' W 074°05'1 3.6
2018-Jul-15 11:00N 40°40' W 074°03'1 2.5
2018-Jul-15 10:30N 40°40' W 074°05'0 0.0
2018-Jul-15 10:00N 40°40' W 074°05'1 2.5
2018-Jul-15 09:31N 40°39' W 074°05'2 4.5
2018-Jul-15 09:01N 40°38' W 074°08'0 0.0
2018-Jul-15 08:31N 40°38' W 074°08'0 0.0
2018-Jul-15 08:00N 40°38' W 074°08'0 0.0
2018-Jul-15 07:31N 40°38' W 074°08'0 0.0
2018-Jul-15 07:00N 40°38' W 074°08'0 0.0
2018-Jul-15 06:30N 40°38' W 074°08'0 0.0
2018-Jul-15 06:00N 40°38' W 074°08'1 1.8
2018-Jul-15 05:31N 40°39' W 074°07'2 3.3
2018-Jul-15 05:00N 40°39' W 074°09'1 2.7
2018-Jul-15 04:30N 40°40' W 074°08'0 0.9
2018-Jul-15 04:00N 40°41' W 074°09'2 4.6
2018-Jul-15 03:30N 40°39' W 074°09'1 1.5
2018-Jul-15 03:01N 40°38' W 074°08'0 0.0
2018-Jul-15 02:30N 40°38' W 074°08'0 0.0
2018-Jul-15 02:00N 40°38' W 074°08'0 0.0
2018-Jul-15 01:30N 40°38' W 074°08'0 0.0
2018-Jul-15 01:00N 40°38' W 074°08'0 0.0
2018-Jul-15 00:30N 40°38' W 074°08'0 0.0
2018-Jul-15 00:00N 40°38' W 074°08'0 0.0
2018-Jul-14 23:30N 40°38' W 074°08'0 0.0
2018-Jul-14 23:00N 40°38' W 074°08'0 0.0
2018-Jul-14 22:30N 40°38' W 074°08'0 0.0
2018-Jul-14 22:00N 40°38' W 074°08'0 0.0
2018-Jul-14 21:30N 40°38' W 074°08'0 0.0
2018-Jul-14 21:01N 40°38' W 074°08'0 0.0
2018-Jul-14 20:30N 40°38' W 074°08'0 0.0
2018-Jul-14 20:00N 40°38' W 074°08'0 0.0
2018-Jul-14 19:30N 40°38' W 074°08'0 0.0
2018-Jul-14 19:00N 40°38' W 074°08'0 0.0
2018-Jul-14 18:31N 40°38' W 074°08'0 0.0
2018-Jul-14 18:01N 40°38' W 074°08'0 0.0
2018-Jul-14 17:30N 40°38' W 074°08'0 0.0
2018-Jul-14 17:00N 40°38' W 074°08'0 0.0
2018-Jul-14 16:30N 40°38' W 074°08'0 0.0
2018-Jul-14 16:01N 40°38' W 074°08'0 0.0
2018-Jul-14 15:31N 40°38' W 074°08'0 0.0
2018-Jul-14 15:00N 40°38' W 074°08'0 0.0
2018-Jul-14 14:00N 40°38' W 074°08'0 0.0
2018-Jul-14 13:30N 40°38' W 074°08'0 0.0
2018-Jul-14 13:00N 40°38' W 074°08'0 0.0
2018-Jul-14 12:30N 40°38' W 074°08'0 0.0
2018-Jul-14 12:00N 40°38' W 074°08'0 0.0
2018-Jul-14 11:29N 40°38' W 074°08'0 0.0
2018-Jul-14 11:00N 40°38' W 074°08'0 0.0
2018-Jul-14 10:30N 40°38' W 074°08'0 0.0
2018-Jul-14 10:00N 40°39' W 074°08'3 5.4
2018-Jul-14 09:30N 40°41' W 074°09'1 1.8
2018-Jul-14 09:00N 40°40' W 074°08'2 3.7
2018-Jul-14 08:30N 40°39' W 074°08'3 5.8
2018-Jul-14 08:00N 40°39' W 074°04'3 5.3
2018-Jul-14 07:30N 40°36' W 074°03'3 6.5
2018-Jul-14 07:00N 40°39' W 074°06'2 3.4
2018-Jul-14 06:30N 40°38' W 074°08'0 0.0
2018-Jul-14 06:00N 40°38' W 074°08'0 0.0
2018-Jul-14 05:30N 40°38' W 074°08'0 0.0
2018-Jul-14 05:00N 40°38' W 074°08'0 0.0
2018-Jul-14 04:30N 40°38' W 074°08'0 0.0
2018-Jul-14 04:00N 40°38' W 074°08'0 0.0
2018-Jul-14 03:30N 40°38' W 074°08'0 0.0
2018-Jul-14 03:00N 40°38' W 074°08'0 0.0
2018-Jul-14 02:30N 40°38' W 074°08'0 0.0
2018-Jul-14 02:00N 40°38' W 074°08'0 0.0
2018-Jul-14 01:30N 40°38' W 074°08'0 0.0
2018-Jul-14 01:00N 40°38' W 074°08'0 0.0
2018-Jul-14 00:30N 40°38' W 074°08'0 0.0
2018-Jul-14 00:00N 40°38' W 074°08'0 0.0
2018-Jul-13 23:30N 40°38' W 074°08'0 0.0
2018-Jul-13 23:00N 40°38' W 074°08'0 0.0
2018-Jul-13 22:30N 40°38' W 074°08'3 6.3
2018-Jul-13 22:00N 40°40' W 074°04'1 1.4
2018-Jul-13 21:30N 40°40' W 074°05'1 2.3
2018-Jul-13 20:56N 40°40' W 074°03'3 6.5
2018-Jul-13 20:29N 40°37' W 074°03'3 5.8
2018-Jul-13 20:00N 40°39' W 074°05'2 4.8
2018-Jul-13 19:30N 40°39' W 074°08'0 0.0
2018-Jul-13 19:00N 40°39' W 074°08'0 0.0
2018-Jul-13 18:30N 40°39' W 074°08'0 0.0
2018-Jul-13 18:00N 40°39' W 074°08'0 0.0
2018-Jul-13 17:30N 40°39' W 074°08'0 0.0
2018-Jul-13 17:00N 40°39' W 074°08'0 0.0
2018-Jul-13 16:30N 40°39' W 074°08'0 0.0
2018-Jul-13 16:00N 40°39' W 074°08'0 0.0
2018-Jul-13 15:30N 40°39' W 074°08'3 5.2
2018-Jul-13 15:00N 40°41' W 074°09'0 0.6
2018-Jul-13 14:30N 40°41' W 074°09'3 3.0
2018-Jul-13 13:30N 40°39' W 074°06'1 1.9
2018-Jul-13 13:00N 40°39' W 074°04'3 5.1
2018-Jul-13 12:30N 40°38' W 074°08'0 0.0
2018-Jul-13 12:00N 40°38' W 074°08'0 0.0
2018-Jul-13 11:30N 40°38' W 074°08'0 0.0
2018-Jul-13 10:59N 40°38' W 074°08'0 0.0
2018-Jul-13 10:30N 40°38' W 074°08'0 0.0
2018-Jul-13 09:59N 40°38' W 074°08'1 2.5
2018-Jul-13 09:30N 40°39' W 074°09'1 2.3
2018-Jul-13 09:00N 40°41' W 074°09'1 1.1
2018-Jul-13 08:30N 40°40' W 074°08'2 3.2
2018-Jul-13 08:00N 40°39' W 074°08'2 5.0
2018-Jul-13 07:31N 40°39' W 074°05'3 6.6
2018-Jul-13 07:01N 40°36' W 074°03'3 6.2
2018-Jul-13 06:30N 40°39' W 074°05'3 6.5
2018-Jul-13 06:00N 40°39' W 074°09'2 4.1
2018-Jul-13 05:30N 40°41' W 074°09'0 0.3
2018-Jul-13 05:00N 40°41' W 074°09'3 1.6
2018-Jul-13 03:16N 40°39' W 074°07'1 4.3
2018-Jul-13 02:59N 40°39' W 074°06'2 4.5
2018-Jul-13 02:29N 40°40' W 074°09'1 2.7
2018-Jul-13 02:00N 40°41' W 074°09'0 0.1
2018-Jul-13 01:30N 40°41' W 074°09'2 3.3
2018-Jul-13 01:00N 40°39' W 074°09'1 2.5
2018-Jul-13 00:30N 40°39' W 074°07'1 2.6
2018-Jul-13 00:00N 40°40' W 074°09'1 2.3
2018-Jul-12 23:30N 40°41' W 074°09'0 0.6
2018-Jul-12 23:00N 40°41' W 074°09'0 0.1
2018-Jul-12 22:31N 40°41' W 074°09'0 0.1
2018-Jul-12 21:59N 40°41' W 074°09'4 7.4
2018-Jul-12 21:29N 40°38' W 074°12'0 0.0
2018-Jul-12 18:13N 40°38' W 074°12'2 9.2
2018-Jul-12 17:57N 40°38' W 074°09'1 1.8
2018-Jul-12 17:29N 40°38' W 074°08'0 0.0
2018-Jul-12 16:59N 40°38' W 074°08'0 0.0
2018-Jul-12 16:26N 40°38' W 074°08'0 0.0
2018-Jul-12 16:00N 40°38' W 074°08'0 0.0
2018-Jul-12 15:30N 40°38' W 074°08'0 0.0
2018-Jul-12 14:58N 40°38' W 074°08'0 0.0
2018-Jul-12 14:28N 40°38' W 074°08'4 7.6
2018-Jul-12 14:00N 40°39' W 074°03'1 2.8
2018-Jul-12 13:31N 40°40' W 074°05'0 0.4
2018-Jul-12 13:01N 40°40' W 074°05'3 5.6
2018-Jul-12 12:30N 40°39' W 074°08'0 0.1
2018-Jul-12 12:00N 40°38' W 074°08'0 0.0
2018-Jul-12 11:29N 40°38' W 074°08'1 1.9
2018-Jul-12 11:01N 40°39' W 074°09'1 1.4
2018-Jul-12 10:26N 40°40' W 074°09'1 2.4
2018-Jul-12 10:00N 40°39' W 074°08'3 6.4
2018-Jul-12 09:31N 40°39' W 074°04'2 3.2
2018-Jul-12 09:00N 40°39' W 074°06'3 6.0
2018-Jul-12 08:30N 40°41' W 074°09'0 0.3
2018-Jul-12 08:00N 40°41' W 074°09'1 1.9
2018-Jul-12 07:30N 40°40' W 074°08'2 3.5
2018-Jul-12 07:00N 40°39' W 074°07'3 6.1
2018-Jul-12 06:30N 40°38' W 074°03'3 6.4
2018-Jul-12 05:58N 40°38' W 074°08'0 0.0
2018-Jul-12 05:29N 40°38' W 074°08'1 1.4
2018-Jul-12 05:00N 40°39' W 074°09'1 2.7
2018-Jul-12 04:30N 40°39' W 074°10'1 1.2
2018-Jul-12 03:59N 40°39' W 074°11'0 0.0
2018-Jul-12 03:30N 40°39' W 074°11'2 3.4
2018-Jul-12 02:58N 40°39' W 074°09'1 1.4
2018-Jul-12 02:24N 40°38' W 074°08'0 0.0
2018-Jul-12 01:59N 40°38' W 074°08'0 0.0
2018-Jul-12 01:21N 40°38' W 074°08'0 0.0
2018-Jul-12 01:00N 40°38' W 074°08'0 0.0
2018-Jul-12 00:05N 40°38' W 074°08'0 0.0
2018-Jul-12 00:00N 40°38' W 074°08'1 1.6
2018-Jul-11 23:30N 40°39' W 074°09'1 2.8
2018-Jul-11 23:00N 40°40' W 074°08'0 0.3
2018-Jul-11 22:27N 40°40' W 074°09'0 0.0
2018-Jul-11 21:59N 40°40' W 074°09'0 0.0
2018-Jul-11 21:30N 40°40' W 074°09'0 0.0
2018-Jul-11 20:59N 40°40' W 074°09'0 0.0
2018-Jul-11 20:26N 40°40' W 074°09'1 3.0
2018-Jul-11 20:00N 40°39' W 074°09'1 0.3
2018-Jul-11 17:21N 40°38' W 074°08'0 0.0
2018-Jul-11 17:00N 40°38' W 074°08'0 0.0
2018-Jul-11 16:30N 40°38' W 074°08'3 1.3
2018-Jul-11 13:53N 40°38' W 074°12'3 8.6
2018-Jul-11 13:30N 40°39' W 074°08'0 0.0
2018-Jul-11 12:40N 40°38' W 074°08'0 0.0
2018-Jul-11 12:21N 40°38' W 074°08'0 0.2
2018-Jul-11 12:00N 40°39' W 074°08'3 5.0
2018-Jul-11 11:30N 40°41' W 074°09'0 0.5
2018-Jul-11 11:01N 40°41' W 074°09'1 2.7
2018-Jul-11 10:30N 40°39' W 074°09'1 2.5
2018-Jul-11 09:58N 40°39' W 074°07'2 5.3
2018-Jul-11 09:31N 40°39' W 074°04'3 5.3
2018-Jul-11 09:00N 40°36' W 074°03'2 4.1
2018-Jul-11 08:30N 40°38' W 074°04'3 5.2
2018-Jul-11 08:00N 40°39' W 074°07'0 0.6
2018-Jul-11 07:29N 40°38' W 074°08'0 0.0
2018-Jul-11 06:16N 40°38' W 074°08'0 0.0
2018-Jul-11 05:35N 40°38' W 074°08'0 0.0
2018-Jul-11 05:25N 40°38' W 074°08'0 1.1
2018-Jul-11 05:00N 40°39' W 074°07'1 2.6
2018-Jul-11 04:30N 40°39' W 074°09'1 2.3
2018-Jul-11 04:01N 40°41' W 074°08'1 1.0
2018-Jul-11 03:30N 40°41' W 074°09'2 4.7
2018-Jul-11 03:00N 40°39' W 074°08'0 0.5
2018-Jul-11 02:23N 40°38' W 074°08'0 0.0
2018-Jul-11 02:00N 40°38' W 074°08'0 0.0
2018-Jul-11 00:24N 40°38' W 074°08'0 0.0
2018-Jul-11 00:00N 40°38' W 074°08'0 0.0
2018-Jul-10 23:30N 40°38' W 074°08'0 0.0
2018-Jul-10 22:58N 40°38' W 074°08'0 0.0
2018-Jul-10 22:30N 40°38' W 074°08'1 2.8
2018-Jul-10 22:00N 40°40' W 074°09'1 2.7
2018-Jul-10 21:30N 40°41' W 074°09'1 1.6
2018-Jul-10 21:00N 40°41' W 074°08'2 3.6
2018-Jul-10 20:26N 40°38' W 074°09'2 5.3
2018-Jul-10 19:59N 40°39' W 074°06'2 4.8
2018-Jul-10 19:28N 40°37' W 074°03'3 5.9
2018-Jul-10 19:00N 40°39' W 074°06'1 1.1
2018-Jul-10 17:47N 40°38' W 074°08'0 0.0
2018-Jul-10 17:30N 40°38' W 074°08'0 0.0
2018-Jul-10 17:00N 40°38' W 074°08'0 0.0
2018-Jul-10 16:30N 40°38' W 074°08'0 0.0
2018-Jul-10 15:59N 40°38' W 074°08'0 0.0
2018-Jul-10 15:30N 40°38' W 074°08'0 0.0
2018-Jul-10 15:00N 40°38' W 074°08'0 0.0
2018-Jul-10 14:30N 40°38' W 074°08'0 0.8
2018-Jul-10 13:58N 40°39' W 074°07'1 2.5
2018-Jul-10 13:30N 40°39' W 074°09'2 3.5
2018-Jul-10 12:59N 40°40' W 074°08'0 0.2
2018-Jul-10 12:22N 40°40' W 074°08'0 0.0
2018-Jul-10 11:59N 40°40' W 074°08'0 0.0
2018-Jul-10 11:30N 40°40' W 074°08'0 0.0
2018-Jul-10 11:00N 40°40' W 074°08'1 1.6
2018-Jul-10 10:31N 40°40' W 074°09'0 0.7
2018-Jul-10 10:00N 40°39' W 074°09'2 3.8
2018-Jul-10 09:27N 40°39' W 074°06'2 5.2
2018-Jul-10 09:00N 40°38' W 074°03'1 2.4
2018-Jul-10 08:30N 40°39' W 074°04'3 6.8
2018-Jul-10 08:00N 40°39' W 074°09'1 2.3
2018-Jul-10 07:30N 40°40' W 074°09'0 0.1
2018-Jul-10 07:00N 40°40' W 074°09'1 2.5
2018-Jul-10 06:30N 40°39' W 074°08'0 0.5
2018-Jul-10 05:52N 40°38' W 074°08'0 0.0
2018-Jul-10 05:15N 40°38' W 074°08'0 0.0
2018-Jul-10 05:00N 40°38' W 074°08'0 0.0
2018-Jul-10 04:29N 40°38' W 074°08'0 0.0
2018-Jul-10 03:58N 40°38' W 074°08'0 0.0
2018-Jul-10 03:30N 40°38' W 074°08'0 0.0
2018-Jul-10 03:00N 40°38' W 074°08'0 0.0
2018-Jul-10 02:30N 40°38' W 074°08'0 0.0
2018-Jul-10 02:00N 40°38' W 074°08'0 0.0
2018-Jul-10 01:30N 40°38' W 074°08'0 0.0
2018-Jul-10 01:00N 40°38' W 074°08'0 0.0
2018-Jul-10 00:30N 40°38' W 074°08'0 0.0
2018-Jul-10 00:00N 40°38' W 074°08'2 3.0
2018-Jul-09 23:29N 40°40' W 074°09'0 0.1
2018-Jul-09 23:00N 40°40' W 074°09'1 2.7
2018-Jul-09 22:30N 40°39' W 074°08'2 4.5
2018-Jul-09 22:00N 40°39' W 074°06'2 4.9
2018-Jul-09 21:30N 40°37' W 074°03'4 7.2
2018-Jul-09 21:00N 40°39' W 074°08'2 3.3
2018-Jul-09 20:30N 40°40' W 074°09'1 1.2
2018-Jul-09 20:01N 40°41' W 074°08'0 0.9
2018-Jul-09 19:31N 40°41' W 074°09'2 4.3
2018-Jul-09 18:59N 40°39' W 074°09'1 1.4
2018-Jul-09 18:23N 40°38' W 074°08'0 0.0
2018-Jul-09 17:50N 40°38' W 074°08'0 0.0
2018-Jul-09 17:28N 40°38' W 074°08'0 0.0
2018-Jul-09 17:00N 40°38' W 074°08'0 0.0
2018-Jul-09 16:27N 40°38' W 074°08'0 0.0
2018-Jul-09 15:57N 40°38' W 074°08'0 0.0
2018-Jul-09 15:30N 40°38' W 074°08'0 0.0
2018-Jul-09 14:52N 40°38' W 074°08'0 0.0
2018-Jul-09 13:35N 40°38' W 074°08'0 0.0
2018-Jul-09 13:30N 40°38' W 074°08'0 0.0
2018-Jul-09 12:54N 40°38' W 074°08'0 0.0
2018-Jul-09 12:21N 40°38' W 074°08'0 0.0
2018-Jul-09 12:00N 40°38' W 074°08'2 4.9
2018-Jul-09 11:30N 40°39' W 074°05'1 2.5
2018-Jul-09 11:00N 40°40' W 074°05'0 0.9
2018-Jul-09 10:30N 40°40' W 074°04'3 6.3
2018-Jul-09 10:00N 40°37' W 074°03'1 2.2
2018-Jul-09 09:30N 40°38' W 074°04'0 0.0
2018-Jul-09 09:00N 40°38' W 074°04'3 6.6
2018-Jul-09 08:30N 40°39' W 074°08'2 3.9
2018-Jul-09 08:00N 40°40' W 074°08'1 2.1
2018-Jul-09 07:30N 40°41' W 074°09'3 5.2
2018-Jul-09 07:00N 40°39' W 074°08'0 0.7
2018-Jul-09 06:24N 40°38' W 074°08'0 0.0
2018-Jul-09 06:00N 40°38' W 074°08'0 0.0
2018-Jul-09 05:29N 40°38' W 074°08'0 0.0
2018-Jul-09 03:51N 40°38' W 074°08'0 0.0
2018-Jul-09 03:30N 40°38' W 074°08'0 0.0
2018-Jul-09 02:59N 40°38' W 074°08'0 0.0
2018-Jul-09 02:24N 40°38' W 074°08'0 0.0
2018-Jul-09 02:00N 40°38' W 074°08'0 0.0
2018-Jul-09 01:10N 40°38' W 074°08'0 0.0
2018-Jul-09 00:58N 40°38' W 074°08'0 0.0
2018-Jul-09 00:21N 40°38' W 074°08'0 0.0
2018-Jul-08 23:47N 40°38' W 074°08'0 0.0
2018-Jul-08 23:30N 40°38' W 074°08'0 0.0
2018-Jul-08 22:59N 40°38' W 074°08'0 0.0
2018-Jul-08 22:05N 40°38' W 074°08'0 0.0
2018-Jul-08 21:59N 40°38' W 074°08'1 0.4
2018-Jul-08 20:26N 40°38' W 074°09'2 3.9
2018-Jul-08 19:56N 40°40' W 074°08'1 1.5
2018-Jul-08 19:29N 40°41' W 074°09'3 1.1
2018-Jul-08 17:08N 40°38' W 074°08'0 0.0
2018-Jul-08 16:38N 40°38' W 074°08'0 0.0
2018-Jul-08 16:29N 40°38' W 074°08'0 0.0
2018-Jul-08 15:50N 40°38' W 074°08'1 1.6
2018-Jul-08 15:14N 40°39' W 074°07'0 0.1
2018-Jul-08 14:29N 40°39' W 074°07'3 3.9
2018-Jul-08 13:47N 40°38' W 074°03'1 4.3
2018-Jul-08 13:30N 40°39' W 074°04'3 3.9
2018-Jul-08 12:50N 40°38' W 074°08'0 0.0
2018-Jul-08 12:29N 40°38' W 074°08'0 0.0
2018-Jul-08 11:59N 40°38' W 074°08'0 0.0
2018-Jul-08 11:23N 40°38' W 074°08'0 0.0
2018-Jul-08 10:59N 40°38' W 074°08'1 2.7
2018-Jul-08 10:29N 40°40' W 074°09'1 3.1
2018-Jul-08 10:00N 40°41' W 074°09'1 2.4
2018-Jul-08 09:30N 40°40' W 074°08'2 3.3
2018-Jul-08 09:00N 40°39' W 074°07'3 5.7
2018-Jul-08 08:29N 40°38' W 074°03'1 2.0
2018-Jul-08 08:00N 40°39' W 074°04'3 5.0
2018-Jul-08 07:18N 40°40' W 074°09'0 0.8
2018-Jul-08 07:01N 40°40' W 074°09'1 2.5
2018-Jul-08 06:29N 40°39' W 074°09'1 0.8
2018-Jul-08 05:30N 40°38' W 074°08'0 0.0
2018-Jul-08 05:00N 40°38' W 074°08'0 0.0
2018-Jul-08 04:28N 40°38' W 074°08'0 0.0
2018-Jul-08 03:54N 40°38' W 074°08'0 0.0
2018-Jul-08 03:23N 40°38' W 074°08'0 0.0
2018-Jul-08 02:59N 40°38' W 074°08'0 0.0
2018-Jul-08 02:30N 40°38' W 074°08'1 1.2
2018-Jul-08 02:00N 40°39' W 074°09'1 2.1
2018-Jul-08 01:28N 40°40' W 074°09'1 2.9
2018-Jul-08 01:00N 40°38' W 074°08'0 0.0
2018-Jul-08 00:30N 40°38' W 074°08'0 0.0
2018-Jul-08 00:00N 40°38' W 074°08'0 0.0
2018-Jul-07 23:30N 40°38' W 074°08'0 0.0
2018-Jul-07 23:00N 40°38' W 074°08'0 0.0
2018-Jul-07 22:30N 40°38' W 074°08'  

Dump ship's entire track history